createdAt,value
2022-11-19T00:02:09.306Z,6.07
2022-11-19T00:04:37.764Z,5.17
2022-11-19T00:07:06.263Z,5.57
2022-11-19T00:09:34.850Z,4.83
2022-11-19T00:12:21.591Z,5.20
2022-11-19T00:14:50.015Z,4.60
2022-11-19T00:17:18.347Z,4.97
2022-11-19T00:19:46.697Z,4.60
2022-11-19T00:22:15.154Z,4.22
2022-11-19T00:24:43.489Z,4.70
2022-11-19T00:27:12.008Z,4.90
2022-11-19T00:29:40.567Z,4.03
2022-11-19T00:32:08.959Z,4.28
2022-11-19T00:34:37.311Z,4.80
2022-11-19T00:37:05.671Z,5.28
2022-11-19T00:39:34.044Z,3.90
2022-11-19T00:42:02.448Z,4.28
2022-11-19T00:44:35.708Z,3.90
2022-11-19T00:47:05.936Z,4.30
2022-11-19T00:49:34.413Z,4.17
2022-11-19T00:52:02.889Z,4.60
2022-11-19T00:54:31.377Z,3.90
2022-11-19T00:56:59.819Z,4.03
2022-11-19T00:59:28.214Z,4.07
2022-11-19T01:01:56.582Z,3.88
2022-11-19T01:04:25.175Z,4.45
2022-11-19T01:06:53.670Z,4.05
2022-11-19T01:09:22.401Z,4.95
2022-11-19T01:11:50.903Z,4.80
2022-11-19T01:14:19.490Z,4.25
2022-11-19T01:16:47.916Z,3.92
2022-11-19T01:19:17.612Z,3.88
2022-11-19T01:21:46.407Z,4.20
2022-11-19T01:24:14.804Z,4.28
2022-11-19T01:26:46.023Z,4.72
2022-11-19T01:29:14.910Z,4.22
2022-11-19T01:31:43.290Z,4.38
2022-11-19T01:34:11.753Z,3.95
2022-11-19T01:36:40.157Z,3.88
2022-11-19T01:39:08.611Z,4.28
2022-11-19T01:41:37.243Z,3.67
2022-11-19T01:44:08.086Z,5.10
2022-11-19T01:46:38.878Z,4.53
2022-11-19T01:49:19.140Z,4.43
2022-11-19T01:52:01.792Z,4.35
2022-11-19T01:54:45.699Z,4.40
2022-11-19T01:57:17.886Z,4.20
2022-11-19T01:59:50.079Z,4.10
2022-11-19T02:02:20.751Z,3.97
2022-11-19T02:04:52.540Z,4.30
2022-11-19T02:07:27.115Z,4.93
2022-11-19T02:09:56.605Z,4.22
2022-11-19T02:12:37.374Z,4.95
2022-11-19T02:15:22.583Z,3.85
2022-11-19T02:18:18.666Z,4.05
2022-11-19T02:21:02.074Z,4.78
2022-11-19T02:24:07.423Z,4.70
2022-11-19T02:26:57.088Z,3.97
2022-11-19T02:29:31.771Z,4.63
2022-11-19T02:32:12.716Z,4.53
2022-11-19T02:34:46.882Z,4.50
2022-11-19T02:37:33.634Z,4.97
2022-11-19T02:40:14.013Z,4.10
2022-11-19T02:42:49.786Z,4.25
2022-11-19T02:45:25.015Z,4.90
2022-11-19T02:47:57.364Z,4.50
2022-11-19T02:50:52.887Z,4.93
2022-11-19T02:53:22.485Z,5.40
2022-11-19T02:56:09.456Z,4.53
2022-11-19T02:59:13.369Z,4.80
2022-11-19T03:02:24.772Z,4.50
2022-11-19T03:04:54.283Z,5.00
2022-11-19T03:07:23.585Z,4.35
2022-11-19T03:10:01.506Z,4.72
2022-11-19T03:12:47.268Z,4.78
2022-11-19T03:15:58.090Z,4.43
2022-11-19T03:19:05.011Z,4.78
2022-11-19T03:21:45.179Z,5.22
2022-11-19T03:24:29.362Z,4.85
2022-11-19T03:27:29.050Z,3.92
2022-11-19T03:30:01.925Z,4.43
2022-11-19T03:32:39.299Z,4.63
2022-11-19T03:35:13.453Z,4.40
2022-11-19T03:37:44.693Z,5.45
2022-11-19T03:40:16.463Z,5.03
2022-11-19T03:42:48.195Z,4.82
2022-11-19T03:45:29.663Z,5.40
2022-11-19T03:47:59.312Z,4.88
2022-11-19T03:50:51.832Z,5.25
2022-11-19T03:53:21.343Z,4.70
2022-11-19T03:55:59.840Z,5.10
2022-11-19T03:58:30.426Z,4.57
2022-11-19T04:00:58.877Z,4.95
2022-11-19T04:03:27.277Z,3.95
2022-11-19T04:05:55.723Z,5.63
2022-11-19T04:08:24.176Z,4.75
2022-11-19T04:10:52.529Z,4.95
2022-11-19T04:13:20.988Z,5.70
2022-11-19T04:15:49.378Z,5.53
2022-11-19T04:18:17.764Z,4.53
2022-11-19T04:20:47.341Z,4.95
2022-11-19T04:23:15.756Z,4.93
2022-11-19T04:25:48.218Z,4.93
2022-11-19T04:28:16.746Z,5.30
2022-11-19T04:30:45.184Z,5.30
2022-11-19T04:33:13.642Z,5.10
2022-11-19T04:35:45.031Z,4.85
2022-11-19T04:38:13.480Z,5.20
2022-11-19T04:40:42.826Z,5.85
2022-11-19T04:43:11.218Z,5.25
2022-11-19T04:45:39.663Z,5.97
2022-11-19T04:48:08.583Z,5.90
2022-11-19T04:50:37.006Z,5.47
2022-11-19T04:53:05.425Z,5.32
2022-11-19T04:55:33.883Z,5.53
2022-11-19T04:58:02.267Z,5.95
2022-11-19T05:00:31.123Z,6.05
2022-11-19T05:02:59.551Z,9.50
2022-11-19T05:05:28.031Z,5.60
2022-11-19T05:07:56.472Z,5.40
2022-11-19T05:10:24.888Z,5.65
2022-11-19T05:12:53.319Z,6.13
2022-11-19T05:15:23.720Z,5.60
2022-11-19T05:17:52.185Z,8.55
2022-11-19T05:20:20.589Z,5.85
2022-11-19T05:22:48.943Z,5.63
2022-11-19T05:25:17.444Z,5.72
2022-11-19T05:27:45.920Z,4.85
2022-11-19T05:30:14.779Z,5.88
2022-11-19T05:32:43.255Z,5.80
2022-11-19T05:35:11.905Z,4.85
2022-11-19T05:37:40.352Z,5.20
2022-11-19T05:40:09.580Z,6.75
2022-11-19T05:42:38.032Z,5.63
2022-11-19T05:45:07.158Z,5.25
2022-11-19T05:47:35.779Z,4.95
2022-11-19T05:50:04.713Z,6.65
2022-11-19T05:52:33.392Z,5.78
2022-11-19T05:55:01.865Z,5.43
2022-11-19T05:57:30.337Z,5.35
2022-11-19T05:59:58.715Z,5.00
2022-11-19T06:02:27.221Z,5.78
2022-11-19T06:04:56.358Z,4.72
2022-11-19T06:07:24.906Z,5.40
2022-11-19T06:09:53.374Z,5.40
2022-11-19T06:12:21.860Z,5.40
2022-11-19T06:14:50.274Z,4.75
2022-11-19T06:17:18.750Z,5.22
2022-11-19T06:19:47.330Z,5.25
2022-11-19T06:22:15.796Z,5.00
2022-11-19T06:24:44.228Z,5.22
2022-11-19T06:27:12.647Z,5.00
2022-11-19T06:29:41.077Z,5.60
2022-11-19T06:32:09.554Z,4.85
2022-11-19T06:34:37.933Z,4.70
2022-11-19T06:37:06.353Z,5.90
2022-11-19T06:39:34.746Z,5.78
2022-11-19T06:42:23.347Z,4.68
2022-11-19T06:44:51.799Z,5.20
2022-11-19T06:47:20.171Z,5.43
2022-11-19T06:49:48.552Z,4.88
2022-11-19T06:52:16.924Z,5.03
2022-11-19T06:54:45.308Z,5.43
2022-11-19T06:57:13.917Z,5.47
2022-11-19T06:59:42.367Z,5.47
2022-11-19T07:02:13.971Z,5.53
2022-11-19T07:04:44.365Z,4.95
2022-11-19T07:07:12.997Z,5.35
2022-11-19T07:09:41.442Z,5.60
2022-11-19T07:12:10.471Z,4.95
2022-11-19T07:14:38.863Z,4.82
2022-11-19T07:17:07.535Z,5.30
2022-11-19T07:19:36.113Z,6.38
2022-11-19T07:22:04.499Z,6.00
2022-11-19T07:24:32.923Z,5.95
2022-11-19T07:27:01.457Z,5.68
2022-11-19T07:29:29.916Z,5.97
2022-11-19T07:31:58.323Z,6.10
2022-11-19T07:34:26.720Z,6.80
2022-11-19T07:36:55.109Z,5.60
2022-11-19T07:39:23.663Z,5.70
2022-11-19T07:42:10.651Z,5.65
2022-11-19T07:44:39.019Z,5.90
2022-11-19T07:47:09.350Z,5.85
2022-11-19T07:49:37.899Z,5.70
2022-11-19T07:52:06.401Z,6.18
2022-11-19T07:54:34.783Z,6.15
2022-11-19T07:57:03.227Z,5.90
2022-11-19T07:59:31.613Z,6.20
2022-11-19T08:02:00.156Z,6.57
2022-11-19T08:04:31.589Z,7.38
2022-11-19T08:07:00.001Z,6.50
2022-11-19T08:09:28.414Z,6.30
2022-11-19T08:11:56.884Z,7.68
2022-11-19T08:14:25.384Z,6.40
2022-11-19T08:17:11.983Z,7.10
2022-11-19T08:19:40.365Z,6.53
2022-11-19T08:22:11.295Z,7.15
2022-11-19T08:24:40.030Z,6.57
2022-11-19T08:27:08.424Z,6.97
2022-11-19T08:29:36.826Z,9.05
2022-11-19T08:32:05.409Z,7.55
2022-11-19T08:34:33.861Z,8.13
2022-11-19T08:37:02.254Z,6.82
2022-11-19T08:39:31.604Z,8.27
2022-11-19T08:42:18.158Z,7.40
2022-11-19T08:44:46.592Z,7.72
2022-11-19T08:47:15.182Z,8.73
2022-11-19T08:49:43.631Z,7.40
2022-11-19T08:52:11.967Z,7.35
2022-11-19T08:54:40.320Z,9.23
2022-11-19T08:57:08.696Z,7.57
2022-11-19T08:59:37.166Z,8.48
2022-11-19T09:02:05.501Z,7.93
2022-11-19T09:04:33.913Z,7.75
2022-11-19T09:07:03.094Z,7.82
2022-11-19T09:09:31.470Z,8.00
2022-11-19T09:11:59.870Z,8.40
2022-11-19T09:14:28.278Z,8.70
2022-11-19T09:16:56.681Z,8.68
2022-11-19T09:19:25.087Z,9.02
2022-11-19T09:21:53.437Z,8.82
2022-11-19T09:24:22.053Z,8.40
2022-11-19T09:26:52.978Z,8.70
2022-11-19T09:29:21.769Z,9.25
2022-11-19T09:31:50.199Z,7.93
2022-11-19T09:34:18.631Z,9.25
2022-11-19T09:36:47.287Z,9.57
2022-11-19T09:39:15.656Z,9.35
2022-11-19T09:42:20.866Z,9.00
2022-11-19T09:45:07.565Z,9.45
2022-11-19T09:47:57.260Z,9.48
2022-11-19T09:50:36.476Z,9.52
2022-11-19T09:53:18.382Z,10.88
2022-11-19T09:55:49.219Z,9.45
2022-11-19T09:58:26.827Z,9.75
2022-11-19T10:00:55.226Z,9.02
2022-11-19T10:03:31.638Z,9.27
2022-11-19T10:06:16.668Z,7.97
2022-11-19T10:09:06.345Z,8.95
2022-11-19T10:11:50.485Z,8.57
2022-11-19T10:14:48.536Z,9.00
2022-11-19T10:17:38.395Z,8.65
2022-11-19T10:20:09.758Z,8.10
2022-11-19T10:22:41.292Z,8.93
2022-11-19T10:25:12.420Z,8.25
2022-11-19T10:28:02.784Z,10.57
2022-11-19T10:30:32.292Z,8.48
2022-11-19T10:33:32.871Z,8.45
2022-11-19T10:36:17.804Z,8.65
2022-11-19T10:38:52.368Z,8.20
2022-11-19T10:41:36.118Z,7.97
2022-11-19T10:44:39.012Z,8.95
2022-11-19T10:47:21.363Z,8.65
2022-11-19T10:49:57.007Z,8.65
2022-11-19T10:52:40.644Z,9.57
2022-11-19T10:55:23.183Z,10.40
2022-11-19T10:58:04.251Z,8.98
2022-11-19T11:00:32.673Z,9.02
2022-11-19T11:03:05.337Z,8.80
2022-11-19T11:05:53.830Z,9.30
2022-11-19T11:08:22.247Z,10.07
2022-11-19T11:10:53.063Z,8.80
2022-11-19T11:13:57.134Z,9.88
2022-11-19T11:16:40.929Z,10.02
2022-11-19T11:19:21.007Z,9.57
2022-11-19T11:21:54.452Z,9.32
2022-11-19T11:24:31.427Z,10.85
2022-11-19T11:27:31.747Z,10.13
2022-11-19T11:30:18.430Z,9.32
2022-11-19T11:32:48.143Z,9.30
2022-11-19T11:35:32.549Z,9.73
2022-11-19T11:38:05.803Z,9.40
2022-11-19T11:40:34.300Z,9.82
2022-11-19T11:43:02.660Z,9.32
2022-11-19T11:45:35.169Z,9.05
2022-11-19T11:48:10.201Z,8.80
2022-11-19T11:50:39.023Z,9.10
2022-11-19T11:53:11.217Z,9.40
2022-11-19T11:55:39.775Z,9.63
2022-11-19T11:58:29.796Z,10.00
2022-11-19T12:01:21.281Z,9.63
2022-11-19T12:03:58.475Z,8.48
2022-11-19T12:06:39.515Z,9.07
2022-11-19T12:09:16.694Z,10.13
2022-11-19T12:12:01.537Z,8.32
2022-11-19T12:14:37.593Z,9.30
2022-11-19T12:17:11.779Z,10.35
2022-11-19T12:20:14.060Z,8.82
2022-11-19T12:23:16.243Z,9.60
2022-11-19T12:26:13.500Z,9.50
2022-11-19T12:29:19.632Z,9.98
2022-11-19T12:32:08.042Z,9.52
2022-11-19T12:34:54.428Z,9.90
2022-11-19T12:37:33.871Z,9.05
2022-11-19T12:40:26.754Z,9.10
2022-11-19T12:43:11.229Z,9.60
2022-11-19T12:45:57.918Z,9.75
2022-11-19T12:48:43.743Z,9.20
2022-11-19T12:51:34.563Z,10.15
2022-11-19T12:54:02.947Z,8.98
2022-11-19T12:56:49.427Z,9.32
2022-11-19T12:59:36.467Z,8.77
2022-11-19T13:02:16.479Z,10.13
2022-11-19T13:04:51.296Z,10.45
2022-11-19T13:07:35.836Z,9.35
2022-11-19T13:10:14.078Z,10.15
2022-11-19T13:12:47.648Z,8.68
2022-11-19T13:15:27.721Z,10.23
2022-11-19T13:17:59.596Z,9.43
2022-11-19T13:21:02.290Z,11.20
2022-11-19T13:23:48.299Z,10.93
2022-11-19T13:26:30.838Z,10.65
2022-11-19T13:29:25.270Z,9.48
2022-11-19T13:31:59.692Z,11.15
2022-11-19T13:34:34.015Z,10.40
2022-11-19T13:37:20.650Z,8.82
2022-11-19T13:39:56.839Z,10.00
2022-11-19T13:42:44.279Z,9.65
2022-11-19T13:45:16.934Z,10.02
2022-11-19T13:47:48.523Z,10.10
2022-11-19T13:50:23.057Z,9.60
2022-11-19T13:53:18.775Z,10.57
2022-11-19T13:55:48.518Z,10.07
2022-11-19T13:58:20.395Z,10.07
2022-11-19T14:01:23.201Z,10.32
2022-11-19T14:04:28.255Z,10.80
2022-11-19T14:07:02.419Z,10.57
2022-11-19T14:09:42.584Z,11.00
2022-11-19T14:12:29.481Z,10.48
2022-11-19T14:15:46.392Z,10.52
2022-11-19T14:19:00.922Z,10.75
2022-11-19T14:21:47.713Z,10.15
2022-11-19T14:24:57.125Z,10.13
2022-11-19T14:27:27.764Z,14.10
2022-11-19T14:30:00.837Z,11.07
2022-11-19T14:32:50.417Z,10.40
2022-11-19T14:35:27.922Z,11.27
2022-11-19T14:38:20.919Z,10.55
2022-11-19T14:41:16.873Z,10.93
2022-11-19T14:44:13.958Z,10.57
2022-11-19T14:46:45.403Z,10.60
2022-11-19T14:49:38.775Z,11.13
2022-11-19T14:52:24.650Z,11.18
2022-11-19T14:55:19.956Z,10.52
2022-11-19T14:57:59.474Z,11.00
2022-11-19T15:00:41.640Z,9.73
2022-11-19T15:03:18.227Z,10.57
2022-11-19T15:05:48.320Z,11.10
2022-11-19T15:08:19.411Z,12.38
2022-11-19T15:11:10.008Z,10.70
2022-11-19T15:13:43.227Z,10.63
2022-11-19T15:16:22.632Z,12.93
2022-11-19T15:19:29.204Z,11.32
2022-11-19T15:22:21.958Z,9.43
2022-11-19T15:25:12.525Z,10.57
2022-11-19T15:28:20.695Z,11.60
2022-11-19T15:31:04.378Z,10.30
2022-11-19T15:34:03.471Z,10.80
2022-11-19T15:36:41.294Z,10.85
2022-11-19T15:39:18.395Z,10.32
2022-11-19T15:42:01.811Z,10.93
2022-11-19T15:44:53.983Z,10.90
2022-11-19T15:47:38.307Z,10.80
2022-11-19T15:50:15.647Z,10.80
2022-11-19T15:52:57.692Z,11.48
2022-11-19T15:55:31.572Z,11.48
2022-11-19T15:58:11.912Z,11.25
2022-11-19T16:00:51.535Z,11.63
2022-11-19T16:03:20.765Z,11.63
2022-11-19T16:06:35.372Z,11.07
2022-11-19T16:09:07.451Z,12.13
2022-11-19T16:11:56.740Z,11.43
2022-11-19T16:14:48.108Z,11.43
2022-11-19T16:17:38.252Z,10.45
2022-11-19T16:20:22.850Z,11.57
2022-11-19T16:22:58.553Z,13.27
2022-11-19T16:25:28.937Z,11.25
2022-11-19T16:27:59.747Z,14.20
2022-11-19T16:30:32.215Z,11.02
2022-11-19T16:33:01.581Z,12.55
2022-11-19T16:35:34.311Z,12.05
2022-11-19T16:38:03.298Z,10.38
2022-11-19T16:40:54.326Z,10.90
2022-11-19T16:43:23.530Z,10.15
2022-11-19T16:45:52.018Z,11.57
2022-11-19T16:48:39.010Z,9.93
2022-11-19T16:51:33.697Z,9.57
2022-11-19T16:54:03.422Z,10.50
2022-11-19T16:56:46.653Z,10.98
2022-11-19T16:59:24.556Z,10.88
2022-11-19T17:02:02.005Z,9.95
2022-11-19T17:04:32.227Z,9.95
2022-11-19T17:07:01.156Z,9.38
2022-11-19T17:09:44.624Z,11.68
2022-11-19T17:12:25.866Z,9.25
2022-11-19T17:14:56.978Z,9.50
2022-11-19T17:17:39.977Z,11.32
2022-11-19T17:20:31.387Z,9.68
2022-11-19T17:23:01.361Z,10.93
2022-11-19T17:25:29.948Z,8.98
2022-11-19T17:28:00.347Z,10.40
2022-11-19T17:30:34.451Z,10.13
2022-11-19T17:33:05.619Z,9.68
2022-11-19T17:35:44.452Z,9.35
2022-11-19T17:38:21.378Z,9.02
2022-11-19T17:40:53.828Z,12.80
2022-11-19T17:43:45.050Z,9.18
2022-11-19T17:46:13.374Z,11.00
2022-11-19T17:48:44.446Z,10.25
2022-11-19T17:51:30.884Z,9.18
2022-11-19T17:53:59.213Z,9.65
2022-11-19T17:56:29.397Z,16.58
2022-11-19T17:59:00.337Z,10.75
2022-11-19T18:01:29.165Z,9.65
2022-11-19T18:03:57.538Z,9.25
2022-11-19T18:06:26.122Z,9.00
2022-11-19T18:08:54.548Z,9.48
2022-11-19T18:11:25.467Z,9.15
2022-11-19T18:13:55.919Z,9.57
2022-11-19T18:16:26.975Z,9.48
2022-11-19T18:18:55.325Z,9.70
2022-11-19T18:21:24.814Z,8.70
2022-11-19T18:23:54.141Z,9.15
2022-11-19T18:26:24.684Z,9.38
2022-11-19T18:28:53.168Z,10.38
2022-11-19T18:31:27.845Z,10.40
2022-11-19T18:33:57.507Z,9.30
2022-11-19T18:36:26.885Z,8.90
2022-11-19T18:38:56.436Z,9.25
2022-11-19T18:41:24.871Z,8.82
2022-11-19T18:44:11.680Z,9.13
2022-11-19T18:46:40.179Z,9.57
2022-11-19T18:49:08.526Z,10.75
2022-11-19T18:51:37.230Z,9.60
2022-11-19T18:54:05.822Z,9.65
2022-11-19T18:56:34.249Z,9.23
2022-11-19T18:59:05.002Z,9.90
2022-11-19T19:01:33.941Z,9.50
2022-11-19T19:04:02.643Z,9.80
2022-11-19T19:06:31.116Z,9.75
2022-11-19T19:08:59.835Z,9.25
2022-11-19T19:11:46.366Z,10.10
2022-11-19T19:14:15.395Z,10.00
2022-11-19T19:16:44.058Z,9.55
2022-11-19T19:19:16.508Z,10.20
2022-11-19T19:21:44.919Z,9.65
2022-11-19T19:24:13.427Z,9.50
2022-11-19T19:26:42.250Z,9.02
2022-11-19T19:29:10.956Z,10.18
2022-11-19T19:31:39.347Z,10.20
2022-11-19T19:34:07.846Z,9.43
2022-11-19T19:36:36.256Z,10.20
2022-11-19T19:39:04.711Z,9.27
2022-11-19T19:41:34.211Z,9.52
2022-11-19T19:44:04.097Z,8.80
2022-11-19T19:46:33.423Z,9.70
2022-11-19T19:49:02.094Z,9.27
2022-11-19T19:51:32.248Z,10.10
2022-11-19T19:54:01.745Z,9.67
2022-11-19T19:56:32.646Z,10.83
2022-11-19T19:59:01.936Z,9.80
2022-11-19T20:01:35.457Z,9.52
2022-11-19T20:04:11.751Z,9.07
2022-11-19T20:06:44.682Z,10.20
2022-11-19T20:09:13.386Z,8.93
2022-11-19T20:11:41.820Z,9.25
2022-11-19T20:14:11.203Z,9.57
2022-11-19T20:16:41.452Z,9.45
2022-11-19T20:19:14.179Z,10.48
2022-11-19T20:21:43.084Z,9.70
2022-11-19T20:24:13.866Z,9.32
2022-11-19T20:26:43.535Z,13.18
2022-11-19T20:29:14.268Z,8.95
2022-11-19T20:31:46.639Z,11.15
2022-11-19T20:34:15.855Z,8.50
2022-11-19T20:36:44.958Z,8.18
2022-11-19T20:39:13.684Z,8.77
2022-11-19T20:42:00.436Z,9.75
2022-11-19T20:44:28.871Z,9.13
2022-11-19T20:47:03.134Z,10.23
2022-11-19T20:49:33.853Z,9.30
2022-11-19T20:52:02.919Z,10.10
2022-11-19T20:54:31.568Z,9.40
2022-11-19T20:57:00.526Z,9.48
2022-11-19T20:59:29.183Z,8.88
2022-11-19T21:01:58.360Z,23.52
2022-11-19T21:04:29.308Z,9.20
2022-11-19T21:06:57.757Z,10.48
2022-11-19T21:09:26.476Z,10.25
2022-11-19T21:11:55.480Z,9.57
2022-11-19T21:14:24.086Z,11.15
2022-11-19T21:16:55.336Z,9.38
2022-11-19T21:19:24.093Z,9.60
2022-11-19T21:21:52.726Z,9.45
2022-11-19T21:24:21.099Z,9.52
2022-11-19T21:26:49.544Z,9.68
2022-11-19T21:29:18.056Z,9.65
2022-11-19T21:31:48.910Z,10.32
2022-11-19T21:34:21.249Z,9.35
2022-11-19T21:36:50.138Z,9.77
2022-11-19T21:39:20.092Z,11.93
2022-11-19T21:41:48.882Z,10.10
2022-11-19T21:44:21.327Z,9.50
2022-11-19T21:46:50.312Z,9.50
2022-11-19T21:49:19.030Z,9.48
2022-11-19T21:51:47.704Z,10.02
2022-11-19T21:54:16.103Z,11.05
2022-11-19T21:56:44.507Z,8.90
2022-11-19T21:59:12.943Z,8.52
2022-11-19T22:01:41.335Z,10.23
2022-11-19T22:04:09.855Z,9.60
2022-11-19T22:06:38.177Z,9.90
2022-11-19T22:09:06.667Z,9.77
2022-11-19T22:11:35.203Z,10.32
2022-11-19T22:14:07.370Z,9.68
2022-11-19T22:16:38.559Z,8.73
2022-11-19T22:19:07.339Z,10.13
2022-11-19T22:21:36.511Z,9.68
2022-11-19T22:24:05.571Z,10.55
2022-11-19T22:26:33.923Z,9.85
2022-11-19T22:29:02.413Z,9.45
2022-11-19T22:31:30.792Z,9.70
2022-11-19T22:33:59.236Z,10.27
2022-11-19T22:36:27.603Z,10.07
2022-11-19T22:38:55.938Z,12.48
2022-11-19T22:41:24.426Z,10.20
2022-11-19T22:43:53.042Z,10.60
2022-11-19T22:46:21.609Z,11.13
2022-11-19T22:48:50.057Z,10.32
2022-11-19T22:51:22.063Z,13.30
2022-11-19T22:53:52.034Z,10.52
2022-11-19T22:56:26.284Z,10.60
2022-11-19T22:58:55.333Z,9.75
2022-11-19T23:01:32.810Z,11.70
2022-11-19T23:04:06.602Z,9.48
2022-11-19T23:06:38.396Z,10.98
2022-11-19T23:09:08.594Z,10.70
2022-11-19T23:11:55.353Z,9.30
2022-11-19T23:14:23.842Z,10.27
2022-11-19T23:16:52.215Z,9.32
2022-11-19T23:19:20.971Z,9.27
2022-11-19T23:21:49.866Z,9.23
2022-11-19T23:24:18.260Z,12.90
2022-11-19T23:26:46.683Z,9.60
2022-11-19T23:29:15.135Z,9.32
2022-11-19T23:31:43.513Z,8.95
2022-11-19T23:34:11.926Z,9.40
2022-11-19T23:36:41.560Z,11.65
2022-11-19T23:39:15.636Z,9.60
2022-11-19T23:41:44.850Z,10.75
2022-11-19T23:44:13.640Z,9.88
2022-11-19T23:46:42.552Z,9.52
2022-11-19T23:49:12.953Z,10.27
2022-11-19T23:51:41.476Z,9.55
2022-11-19T23:54:12.814Z,10.60
2022-11-19T23:56:41.253Z,10.07
2022-11-19T23:59:09.620Z,9.10
